sensor_id;sensor_type;location;lat;lon;timestamp;temperature;humidity
73780;SHT30;62093;37.614;15.072;2023-08-06T00:01:17;25.71;58.90
73780;SHT30;62093;37.614;15.072;2023-08-06T00:03:52;25.70;58.91
73780;SHT30;62093;37.614;15.072;2023-08-06T00:06:23;25.69;59.26
73780;SHT30;62093;37.614;15.072;2023-08-06T00:09:02;25.66;58.99
73780;SHT30;62093;37.614;15.072;2023-08-06T00:11:48;25.67;59.09
73780;SHT30;62093;37.614;15.072;2023-08-06T00:14:25;25.67;58.88
73780;SHT30;62093;37.614;15.072;2023-08-06T00:17:01;25.69;58.89
73780;SHT30;62093;37.614;15.072;2023-08-06T00:19:38;25.67;59.14
73780;SHT30;62093;37.614;15.072;2023-08-06T00:22:15;25.63;59.50
73780;SHT30;62093;37.614;15.072;2023-08-06T00:24:49;25.65;59.13
73780;SHT30;62093;37.614;15.072;2023-08-06T00:27:19;25.65;59.31
73780;SHT30;62093;37.614;15.072;2023-08-06T00:29:51;25.60;59.39
73780;SHT30;62093;37.614;15.072;2023-08-06T00:32:19;25.62;59.22
73780;SHT30;62093;37.614;15.072;2023-08-06T00:34:57;25.60;59.46
73780;SHT30;62093;37.614;15.072;2023-08-06T00:37:32;25.63;59.29
73780;SHT30;62093;37.614;15.072;2023-08-06T00:40:01;25.62;59.31
73780;SHT30;62093;37.614;15.072;2023-08-06T00:42:44;25.62;59.40
73780;SHT30;62093;37.614;15.072;2023-08-06T00:45:20;25.62;59.37
73780;SHT30;62093;37.614;15.072;2023-08-06T00:48:05;25.60;58.96
73780;SHT30;62093;37.614;15.072;2023-08-06T00:50:40;25.60;58.67
73780;SHT30;62093;37.614;15.072;2023-08-06T00:53:11;25.60;59.31
73780;SHT30;62093;37.614;15.072;2023-08-06T00:55:50;25.62;59.19
73780;SHT30;62093;37.614;15.072;2023-08-06T00:58:19;25.57;59.09
73780;SHT30;62093;37.614;15.072;2023-08-06T01:00:58;25.59;59.31
73780;SHT30;62093;37.614;15.072;2023-08-06T01:03:26;25.57;58.84
73780;SHT30;62093;37.614;15.072;2023-08-06T01:05:55;25.56;58.93
73780;SHT30;62093;37.614;15.072;2023-08-06T01:11:38;25.54;59.27
73780;SHT30;62093;37.614;15.072;2023-08-06T01:14:19;25.51;59.09
73780;SHT30;62093;37.614;15.072;2023-08-06T01:16:49;25.53;59.19
73780;SHT30;62093;37.614;15.072;2023-08-06T01:19:19;25.54;58.41
73780;SHT30;62093;37.614;15.072;2023-08-06T01:21:45;25.54;59.19
73780;SHT30;62093;37.614;15.072;2023-08-06T01:24:19;25.51;59.25
73780;SHT30;62093;37.614;15.072;2023-08-06T01:26:51;25.53;59.14
73780;SHT30;62093;37.614;15.072;2023-08-06T01:29:34;25.51;59.03
73780;SHT30;62093;37.614;15.072;2023-08-06T01:32:05;25.51;59.30
73780;SHT30;62093;37.614;15.072;2023-08-06T01:34:41;25.49;59.53
73780;SHT30;62093;37.614;15.072;2023-08-06T01:37:30;25.49;59.41
73780;SHT30;62093;37.614;15.072;2023-08-06T01:39:59;25.50;59.15
73780;SHT30;62093;37.614;15.072;2023-08-06T01:42:31;25.51;59.16
73780;SHT30;62093;37.614;15.072;2023-08-06T01:45:09;25.47;59.40
73780;SHT30;62093;37.614;15.072;2023-08-06T01:47:46;25.47;59.38
73780;SHT30;62093;37.614;15.072;2023-08-06T01:50:25;25.46;59.32
73780;SHT30;62093;37.614;15.072;2023-08-06T01:52:52;25.46;59.47
73780;SHT30;62093;37.614;15.072;2023-08-06T01:55:23;25.46;59.35
73780;SHT30;62093;37.614;15.072;2023-08-06T01:57:58;25.46;59.26
73780;SHT30;62093;37.614;15.072;2023-08-06T02:00:36;25.49;59.46
73780;SHT30;62093;37.614;15.072;2023-08-06T02:03:04;25.46;59.28
73780;SHT30;62093;37.614;15.072;2023-08-06T02:05:49;25.46;59.24
73780;SHT30;62093;37.614;15.072;2023-08-06T02:08:27;25.45;58.99
73780;SHT30;62093;37.614;15.072;2023-08-06T02:10:56;25.45;59.36
73780;SHT30;62093;37.614;15.072;2023-08-06T02:13:53;25.42;59.14
73780;SHT30;62093;37.614;15.072;2023-08-06T02:16:22;25.39;59.16
73780;SHT30;62093;37.614;15.072;2023-08-06T02:19:05;25.40;59.43
73780;SHT30;62093;37.614;15.072;2023-08-06T02:21:45;25.40;59.46
73780;SHT30;62093;37.614;15.072;2023-08-06T02:24:25;25.43;58.63
73780;SHT30;62093;37.614;15.072;2023-08-06T02:26:56;25.39;59.57
73780;SHT30;62093;37.614;15.072;2023-08-06T02:29:25;25.39;59.64
73780;SHT30;62093;37.614;15.072;2023-08-06T02:31:53;25.40;59.39
73780;SHT30;62093;37.614;15.072;2023-08-06T02:34:28;25.40;59.30
73780;SHT30;62093;37.614;15.072;2023-08-06T02:36:53;25.39;58.65
73780;SHT30;62093;37.614;15.072;2023-08-06T02:39:26;25.38;58.93
73780;SHT30;62093;37.614;15.072;2023-08-06T02:42:09;25.39;59.36
73780;SHT30;62093;37.614;15.072;2023-08-06T02:44:38;25.40;59.28
73780;SHT30;62093;37.614;15.072;2023-08-06T02:47:12;25.38;59.35
73780;SHT30;62093;37.614;15.072;2023-08-06T02:49:43;25.36;59.31
73780;SHT30;62093;37.614;15.072;2023-08-06T02:52:20;25.35;59.35
73780;SHT30;62093;37.614;15.072;2023-08-06T02:54:54;25.36;59.50
73780;SHT30;62093;37.614;15.072;2023-08-06T02:57:35;25.35;59.32
73780;SHT30;62093;37.614;15.072;2023-08-06T03:00:29;25.36;59.46
73780;SHT30;62093;37.614;15.072;2023-08-06T03:02:58;25.32;58.94
73780;SHT30;62093;37.614;15.072;2023-08-06T03:06:22;25.33;58.77
73780;SHT30;62093;37.614;15.072;2023-08-06T03:08:55;25.33;59.04
73780;SHT30;62093;37.614;15.072;2023-08-06T03:11:21;25.33;59.49
73780;SHT30;62093;37.614;15.072;2023-08-06T03:13:49;25.35;59.19
73780;SHT30;62093;37.614;15.072;2023-08-06T03:16:16;25.32;59.05
73780;SHT30;62093;37.614;15.072;2023-08-06T03:18:43;25.33;59.23
73780;SHT30;62093;37.614;15.072;2023-08-06T03:21:09;25.32;59.27
73780;SHT30;62093;37.614;15.072;2023-08-06T03:23:35;25.32;59.53
73780;SHT30;62093;37.614;15.072;2023-08-06T03:26:02;25.29;59.32
73780;SHT30;62093;37.614;15.072;2023-08-06T03:28:32;25.30;59.19
73780;SHT30;62093;37.614;15.072;2023-08-06T03:31:03;25.29;59.11
73780;SHT30;62093;37.614;15.072;2023-08-06T03:33:40;25.28;59.48
73780;SHT30;62093;37.614;15.072;2023-08-06T03:36:12;25.25;59.73
73780;SHT30;62093;37.614;15.072;2023-08-06T03:38:38;25.25;59.54
73780;SHT30;62093;37.614;15.072;2023-08-06T03:41:07;25.28;59.82
73780;SHT30;62093;37.614;15.072;2023-08-06T03:43:35;25.25;59.78
73780;SHT30;62093;37.614;15.072;2023-08-06T03:46:04;25.26;59.63
73780;SHT30;62093;37.614;15.072;2023-08-06T03:48:34;25.23;59.92
73780;SHT30;62093;37.614;15.072;2023-08-06T03:51:00;25.19;59.86
73780;SHT30;62093;37.614;15.072;2023-08-06T03:53:28;25.22;59.35
73780;SHT30;62093;37.614;15.072;2023-08-06T03:55:54;25.19;59.82
73780;SHT30;62093;37.614;15.072;2023-08-06T03:58:21;25.18;59.90
73780;SHT30;62093;37.614;15.072;2023-08-06T04:00:47;25.16;59.64
73780;SHT30;62093;37.614;15.072;2023-08-06T04:03:14;25.15;60.13
73780;SHT30;62093;37.614;15.072;2023-08-06T04:05:39;25.15;60.03
73780;SHT30;62093;37.614;15.072;2023-08-06T04:08:06;25.18;59.79
73780;SHT30;62093;37.614;15.072;2023-08-06T04:10:31;25.14;60.16
73780;SHT30;62093;37.614;15.072;2023-08-06T04:12:57;25.12;59.92
73780;SHT30;62093;37.614;15.072;2023-08-06T04:15:26;25.14;60.06
73780;SHT30;62093;37.614;15.072;2023-08-06T04:17:52;25.14;60.08
73780;SHT30;62093;37.614;15.072;2023-08-06T04:20:18;25.14;59.83
73780;SHT30;62093;37.614;15.072;2023-08-06T04:22:44;25.16;59.74
73780;SHT30;62093;37.614;15.072;2023-08-06T04:25:09;25.09;59.70
73780;SHT30;62093;37.614;15.072;2023-08-06T04:27:35;25.14;59.85
73780;SHT30;62093;37.614;15.072;2023-08-06T04:30:03;25.12;59.57
73780;SHT30;62093;37.614;15.072;2023-08-06T04:32:30;25.15;59.91
73780;SHT30;62093;37.614;15.072;2023-08-06T04:34:56;25.12;60.05
73780;SHT30;62093;37.614;15.072;2023-08-06T04:37:23;25.09;59.91
73780;SHT30;62093;37.614;15.072;2023-08-06T04:39:49;25.11;59.77
73780;SHT30;62093;37.614;15.072;2023-08-06T04:42:18;25.08;60.11
73780;SHT30;62093;37.614;15.072;2023-08-06T04:44:44;25.09;60.32
73780;SHT30;62093;37.614;15.072;2023-08-06T04:47:10;25.09;60.05
73780;SHT30;62093;37.614;15.072;2023-08-06T04:49:36;25.09;60.28
73780;SHT30;62093;37.614;15.072;2023-08-06T04:52:02;25.08;60.30
73780;SHT30;62093;37.614;15.072;2023-08-06T04:54:28;25.09;60.18
73780;SHT30;62093;37.614;15.072;2023-08-06T04:56:54;25.08;60.22
73780;SHT30;62093;37.614;15.072;2023-08-06T04:59:20;25.09;60.02
73780;SHT30;62093;37.614;15.072;2023-08-06T05:01:45;25.08;60.15
73780;SHT30;62093;37.614;15.072;2023-08-06T05:04:11;25.08;60.15
73780;SHT30;62093;37.614;15.072;2023-08-06T05:06:37;25.09;60.20
73780;SHT30;62093;37.614;15.072;2023-08-06T05:09:04;25.14;59.85
73780;SHT30;62093;37.614;15.072;2023-08-06T05:11:31;25.12;59.80
73780;SHT30;62093;37.614;15.072;2023-08-06T05:13:57;25.12;59.65
73780;SHT30;62093;37.614;15.072;2023-08-06T05:16:23;25.15;59.51
73780;SHT30;62093;37.614;15.072;2023-08-06T05:18:49;25.15;59.84
73780;SHT30;62093;37.614;15.072;2023-08-06T05:21:15;25.14;59.32
73780;SHT30;62093;37.614;15.072;2023-08-06T05:23:42;25.18;59.45
73780;SHT30;62093;37.614;15.072;2023-08-06T05:26:08;25.16;59.61
73780;SHT30;62093;37.614;15.072;2023-08-06T05:28:34;25.16;59.53
73780;SHT30;62093;37.614;15.072;2023-08-06T05:31:04;25.20;59.41
73780;SHT30;62093;37.614;15.072;2023-08-06T05:33:30;25.19;59.36
73780;SHT30;62093;37.614;15.072;2023-08-06T05:35:56;25.19;59.37
73780;SHT30;62093;37.614;15.072;2023-08-06T05:38:22;25.22;59.62
73780;SHT30;62093;37.614;15.072;2023-08-06T05:40:49;25.19;59.12
73780;SHT30;62093;37.614;15.072;2023-08-06T05:43:14;25.20;59.45
73780;SHT30;62093;37.614;15.072;2023-08-06T05:45:44;25.22;59.11
73780;SHT30;62093;37.614;15.072;2023-08-06T05:48:11;25.22;59.08
73780;SHT30;62093;37.614;15.072;2023-08-06T05:50:37;25.22;59.21
73780;SHT30;62093;37.614;15.072;2023-08-06T05:53:03;25.23;58.67
73780;SHT30;62093;37.614;15.072;2023-08-06T05:55:29;25.23;59.24
73780;SHT30;62093;37.614;15.072;2023-08-06T05:57:56;25.28;59.37
73780;SHT30;62093;37.614;15.072;2023-08-06T06:00:22;25.26;59.05
73780;SHT30;62093;37.614;15.072;2023-08-06T06:02:48;25.28;58.83
73780;SHT30;62093;37.614;15.072;2023-08-06T06:05:14;25.29;59.34
73780;SHT30;62093;37.614;15.072;2023-08-06T06:07:40;25.33;59.43
73780;SHT30;62093;37.614;15.072;2023-08-06T06:10:07;25.30;59.39
73780;SHT30;62093;37.614;15.072;2023-08-06T06:12:33;25.32;59.51
73780;SHT30;62093;37.614;15.072;2023-08-06T06:14:58;25.29;59.00
73780;SHT30;62093;37.614;15.072;2023-08-06T06:17:29;25.29;58.93
73780;SHT30;62093;37.614;15.072;2023-08-06T06:19:58;25.29;59.26
73780;SHT30;62093;37.614;15.072;2023-08-06T06:22:24;25.33;59.17
73780;SHT30;62093;37.614;15.072;2023-08-06T06:24:50;25.35;58.54
73780;SHT30;62093;37.614;15.072;2023-08-06T06:27:16;25.35;58.54
73780;SHT30;62093;37.614;15.072;2023-08-06T06:29:42;25.35;58.91
73780;SHT30;62093;37.614;15.072;2023-08-06T06:32:08;25.35;58.81
73780;SHT30;62093;37.614;15.072;2023-08-06T06:34:36;25.36;58.38
73780;SHT30;62093;37.614;15.072;2023-08-06T06:37:02;25.35;58.40
73780;SHT30;62093;37.614;15.072;2023-08-06T06:39:28;25.36;58.18
73780;SHT30;62093;37.614;15.072;2023-08-06T06:41:54;25.42;58.22
73780;SHT30;62093;37.614;15.072;2023-08-06T06:44:28;25.40;58.28
73780;SHT30;62093;37.614;15.072;2023-08-06T06:46:54;25.39;57.78
73780;SHT30;62093;37.614;15.072;2023-08-06T06:49:20;25.40;58.27
73780;SHT30;62093;37.614;15.072;2023-08-06T06:51:46;25.40;58.11
73780;SHT30;62093;37.614;15.072;2023-08-06T06:54:12;25.42;58.59
73780;SHT30;62093;37.614;15.072;2023-08-06T06:56:38;25.43;57.62
73780;SHT30;62093;37.614;15.072;2023-08-06T06:59:04;25.40;58.37
73780;SHT30;62093;37.614;15.072;2023-08-06T07:01:29;25.42;58.03
73780;SHT30;62093;37.614;15.072;2023-08-06T07:03:55;25.42;57.43
73780;SHT30;62093;37.614;15.072;2023-08-06T07:06:22;25.42;57.35
73780;SHT30;62093;37.614;15.072;2023-08-06T07:08:48;25.45;58.05
73780;SHT30;62093;37.614;15.072;2023-08-06T07:11:14;25.47;58.50
73780;SHT30;62093;37.614;15.072;2023-08-06T07:13:40;25.49;58.66
73780;SHT30;62093;37.614;15.072;2023-08-06T07:16:06;25.47;58.27
73780;SHT30;62093;37.614;15.072;2023-08-06T07:18:32;25.47;58.11
73780;SHT30;62093;37.614;15.072;2023-08-06T07:20:58;25.50;57.97
73780;SHT30;62093;37.614;15.072;2023-08-06T07:23:24;25.47;58.19
73780;SHT30;62093;37.614;15.072;2023-08-06T07:25:51;25.49;58.10
73780;SHT30;62093;37.614;15.072;2023-08-06T07:28:17;25.50;58.38
73780;SHT30;62093;37.614;15.072;2023-08-06T07:30:43;25.51;58.02
73780;SHT30;62093;37.614;15.072;2023-08-06T07:33:09;25.50;57.48
73780;SHT30;62093;37.614;15.072;2023-08-06T07:35:36;25.50;57.99
73780;SHT30;62093;37.614;15.072;2023-08-06T07:38:02;25.51;57.79
73780;SHT30;62093;37.614;15.072;2023-08-06T07:40:28;25.51;58.27
73780;SHT30;62093;37.614;15.072;2023-08-06T07:42:54;25.50;57.41
73780;SHT30;62093;37.614;15.072;2023-08-06T07:45:21;25.50;57.73
73780;SHT30;62093;37.614;15.072;2023-08-06T07:47:46;25.54;58.29
73780;SHT30;62093;37.614;15.072;2023-08-06T07:50:13;25.53;57.82
73780;SHT30;62093;37.614;15.072;2023-08-06T07:52:40;25.56;58.43
73780;SHT30;62093;37.614;15.072;2023-08-06T07:55:06;25.56;58.33
73780;SHT30;62093;37.614;15.072;2023-08-06T07:57:32;25.57;58.15
73780;SHT30;62093;37.614;15.072;2023-08-06T07:59:59;25.56;57.82
73780;SHT30;62093;37.614;15.072;2023-08-06T08:02:25;25.54;57.58
73780;SHT30;62093;37.614;15.072;2023-08-06T08:04:51;25.56;58.05
73780;SHT30;62093;37.614;15.072;2023-08-06T08:07:17;25.59;58.09
73780;SHT30;62093;37.614;15.072;2023-08-06T08:09:43;25.59;58.41
73780;SHT30;62093;37.614;15.072;2023-08-06T08:12:09;25.60;58.32
73780;SHT30;62093;37.614;15.072;2023-08-06T08:14:35;25.62;58.01
73780;SHT30;62093;37.614;15.072;2023-08-06T08:17:03;25.60;57.70
73780;SHT30;62093;37.614;15.072;2023-08-06T08:19:30;25.62;58.32
73780;SHT30;62093;37.614;15.072;2023-08-06T08:21:56;25.63;58.36
73780;SHT30;62093;37.614;15.072;2023-08-06T08:24:22;25.62;58.24
73780;SHT30;62093;37.614;15.072;2023-08-06T08:26:52;25.66;57.93
73780;SHT30;62093;37.614;15.072;2023-08-06T08:29:19;25.65;57.95
73780;SHT30;62093;37.614;15.072;2023-08-06T08:31:45;25.63;58.20
73780;SHT30;62093;37.614;15.072;2023-08-06T08:34:11;25.66;58.46
73780;SHT30;62093;37.614;15.072;2023-08-06T08:36:37;25.67;58.43
73780;SHT30;62093;37.614;15.072;2023-08-06T08:39:03;25.66;58.17
73780;SHT30;62093;37.614;15.072;2023-08-06T08:41:31;25.69;58.19
73780;SHT30;62093;37.614;15.072;2023-08-06T08:43:58;25.66;57.84
73780;SHT30;62093;37.614;15.072;2023-08-06T08:46:29;25.66;58.24
73780;SHT30;62093;37.614;15.072;2023-08-06T08:48:56;25.67;58.37
73780;SHT30;62093;37.614;15.072;2023-08-06T08:51:25;25.67;58.28
73780;SHT30;62093;37.614;15.072;2023-08-06T08:53:53;25.67;58.33
73780;SHT30;62093;37.614;15.072;2023-08-06T08:56:23;25.70;58.40
73780;SHT30;62093;37.614;15.072;2023-08-06T08:58:50;25.70;58.40
73780;SHT30;62093;37.614;15.072;2023-08-06T09:01:18;25.70;58.55
73780;SHT30;62093;37.614;15.072;2023-08-06T09:03:46;25.71;58.39
73780;SHT30;62093;37.614;15.072;2023-08-06T09:06:13;25.70;58.37
73780;SHT30;62093;37.614;15.072;2023-08-06T09:08:47;25.73;58.31
73780;SHT30;62093;37.614;15.072;2023-08-06T09:11:14;25.74;58.09
73780;SHT30;62093;37.614;15.072;2023-08-06T09:13:41;25.73;58.29
73780;SHT30;62093;37.614;15.072;2023-08-06T09:16:06;25.73;58.24
73780;SHT30;62093;37.614;15.072;2023-08-06T09:18:32;25.73;58.39
73780;SHT30;62093;37.614;15.072;2023-08-06T09:20:58;25.76;58.40
73780;SHT30;62093;37.614;15.072;2023-08-06T09:23:31;25.76;58.41
73780;SHT30;62093;37.614;15.072;2023-08-06T09:25:59;25.77;58.40
73780;SHT30;62093;37.614;15.072;2023-08-06T09:28:36;25.78;58.47
73780;SHT30;62093;37.614;15.072;2023-08-06T09:31:04;25.78;58.42
73780;SHT30;62093;37.614;15.072;2023-08-06T09:33:30;25.78;58.43
73780;SHT30;62093;37.614;15.072;2023-08-06T09:35:56;25.78;58.45
73780;SHT30;62093;37.614;15.072;2023-08-06T09:38:22;25.81;58.45
73780;SHT30;62093;37.614;15.072;2023-08-06T09:40:48;25.81;58.42
73780;SHT30;62093;37.614;15.072;2023-08-06T09:43:13;25.83;58.47
73780;SHT30;62093;37.614;15.072;2023-08-06T09:45:39;25.83;58.46
73780;SHT30;62093;37.614;15.072;2023-08-06T09:48:07;25.84;58.43
73780;SHT30;62093;37.614;15.072;2023-08-06T09:50:35;25.84;58.39
73780;SHT30;62093;37.614;15.072;2023-08-06T09:53:08;25.86;58.40
73780;SHT30;62093;37.614;15.072;2023-08-06T09:55:34;25.88;58.37
73780;SHT30;62093;37.614;15.072;2023-08-06T09:58:00;25.86;58.40
73780;SHT30;62093;37.614;15.072;2023-08-06T10:00:26;25.87;58.35
73780;SHT30;62093;37.614;15.072;2023-08-06T10:02:54;25.87;58.38
73780;SHT30;62093;37.614;15.072;2023-08-06T10:05:22;25.88;58.36
73780;SHT30;62093;37.614;15.072;2023-08-06T10:07:49;25.90;58.39
73780;SHT30;62093;37.614;15.072;2023-08-06T10:10:18;25.88;58.31
73780;SHT30;62093;37.614;15.072;2023-08-06T10:12:49;25.91;58.32
73780;SHT30;62093;37.614;15.072;2023-08-06T10:15:19;25.91;58.32
73780;SHT30;62093;37.614;15.072;2023-08-06T10:17:47;25.91;58.31
73780;SHT30;62093;37.614;15.072;2023-08-06T10:20:15;25.93;58.27
73780;SHT30;62093;37.614;15.072;2023-08-06T10:22:44;25.91;58.29
73780;SHT30;62093;37.614;15.072;2023-08-06T10:25:10;25.94;58.22
73780;SHT30;62093;37.614;15.072;2023-08-06T10:27:53;25.94;58.21
73780;SHT30;62093;37.614;15.072;2023-08-06T10:30:32;25.96;58.22
73780;SHT30;62093;37.614;15.072;2023-08-06T10:33:02;25.94;58.23
73780;SHT30;62093;37.614;15.072;2023-08-06T10:35:49;25.97;58.17
73780;SHT30;62093;37.614;15.072;2023-08-06T10:38:25;25.96;58.16
73780;SHT30;62093;37.614;15.072;2023-08-06T10:43:32;25.96;58.17
73780;SHT30;62093;37.614;15.072;2023-08-06T10:45:59;26.01;58.16
73780;SHT30;62093;37.614;15.072;2023-08-06T10:48:45;26.00;58.15
73780;SHT30;62093;37.614;15.072;2023-08-06T10:51:13;26.01;58.09
73780;SHT30;62093;37.614;15.072;2023-08-06T10:53:44;26.01;58.08
73780;SHT30;62093;37.614;15.072;2023-08-06T10:56:17;26.01;58.04
73780;SHT30;62093;37.614;15.072;2023-08-06T10:58:47;26.02;58.03
73780;SHT30;62093;37.614;15.072;2023-08-06T11:01:13;26.02;58.06
73780;SHT30;62093;37.614;15.072;2023-08-06T11:03:41;26.05;58.03
73780;SHT30;62093;37.614;15.072;2023-08-06T11:06:08;26.05;58.02
73780;SHT30;62093;37.614;15.072;2023-08-06T11:08:36;26.05;57.99
73780;SHT30;62093;37.614;15.072;2023-08-06T11:11:12;26.07;57.97
73780;SHT30;62093;37.614;15.072;2023-08-06T11:13:42;26.08;57.98
73780;SHT30;62093;37.614;15.072;2023-08-06T11:16:09;26.08;57.92
73780;SHT30;62093;37.614;15.072;2023-08-06T11:18:35;26.07;57.91
73780;SHT30;62093;37.614;15.072;2023-08-06T11:21:01;26.08;57.93
73780;SHT30;62093;37.614;15.072;2023-08-06T11:23:28;26.10;57.90
73780;SHT30;62093;37.614;15.072;2023-08-06T11:25:55;26.08;57.86
73780;SHT30;62093;37.614;15.072;2023-08-06T11:28:21;26.11;57.84
73780;SHT30;62093;37.614;15.072;2023-08-06T11:30:48;26.11;57.86
73780;SHT30;62093;37.614;15.072;2023-08-06T11:33:14;26.11;57.83
73780;SHT30;62093;37.614;15.072;2023-08-06T11:35:40;26.13;57.81
73780;SHT30;62093;37.614;15.072;2023-08-06T11:38:06;26.14;57.83
73780;SHT30;62093;37.614;15.072;2023-08-06T11:40:35;26.14;57.75
73780;SHT30;62093;37.614;15.072;2023-08-06T11:43:01;26.14;57.77
73780;SHT30;62093;37.614;15.072;2023-08-06T11:45:27;26.16;57.75
73780;SHT30;62093;37.614;15.072;2023-08-06T11:47:53;26.16;57.79
73780;SHT30;62093;37.614;15.072;2023-08-06T11:50:27;26.18;57.74
73780;SHT30;62093;37.614;15.072;2023-08-06T11:52:56;26.17;57.67
73780;SHT30;62093;37.614;15.072;2023-08-06T11:55:24;26.18;57.68
73780;SHT30;62093;37.614;15.072;2023-08-06T11:57:50;26.20;57.69
73780;SHT30;62093;37.614;15.072;2023-08-06T12:00:16;26.24;57.69
73780;SHT30;62093;37.614;15.072;2023-08-06T12:02:45;26.21;57.62
73780;SHT30;62093;37.614;15.072;2023-08-06T12:05:16;26.22;57.61
73780;SHT30;62093;37.614;15.072;2023-08-06T12:07:49;26.24;57.61
73780;SHT30;62093;37.614;15.072;2023-08-06T12:10:19;26.22;57.60
73780;SHT30;62093;37.614;15.072;2023-08-06T12:12:46;26.25;57.60
73780;SHT30;62093;37.614;15.072;2023-08-06T12:15:12;26.25;57.60
73780;SHT30;62093;37.614;15.072;2023-08-06T12:17:38;26.25;57.54
73780;SHT30;62093;37.614;15.072;2023-08-06T12:20:05;26.27;57.57
73780;SHT30;62093;37.614;15.072;2023-08-06T12:22:32;26.28;57.51
73780;SHT30;62093;37.614;15.072;2023-08-06T12:25:01;26.28;57.50
73780;SHT30;62093;37.614;15.072;2023-08-06T12:27:28;26.28;57.47
73780;SHT30;62093;37.614;15.072;2023-08-06T12:29:54;26.27;57.48
73780;SHT30;62093;37.614;15.072;2023-08-06T12:32:20;26.28;57.42
73780;SHT30;62093;37.614;15.072;2023-08-06T12:34:47;26.29;57.38
73780;SHT30;62093;37.614;15.072;2023-08-06T12:37:13;26.28;57.34
73780;SHT30;62093;37.614;15.072;2023-08-06T12:39:39;26.32;57.36
73780;SHT30;62093;37.614;15.072;2023-08-06T12:42:05;26.32;57.35
73780;SHT30;62093;37.614;15.072;2023-08-06T12:44:32;26.32;57.34
73780;SHT30;62093;37.614;15.072;2023-08-06T12:46:58;26.32;57.30
73780;SHT30;62093;37.614;15.072;2023-08-06T12:49:25;26.37;57.21
73780;SHT30;62093;37.614;15.072;2023-08-06T12:51:52;26.35;57.24
73780;SHT30;62093;37.614;15.072;2023-08-06T12:54:19;26.38;57.20
73780;SHT30;62093;37.614;15.072;2023-08-06T12:56:46;26.38;57.17
73780;SHT30;62093;37.614;15.072;2023-08-06T12:59:16;26.37;57.17
73780;SHT30;62093;37.614;15.072;2023-08-06T13:01:43;26.39;57.16
73780;SHT30;62093;37.614;15.072;2023-08-06T13:04:09;26.39;57.16
73780;SHT30;62093;37.614;15.072;2023-08-06T13:06:36;26.39;57.14
73780;SHT30;62093;37.614;15.072;2023-08-06T13:09:12;26.41;57.12
73780;SHT30;62093;37.614;15.072;2023-08-06T13:11:39;26.41;57.12
73780;SHT30;62093;37.614;15.072;2023-08-06T13:14:07;26.41;57.08
73780;SHT30;62093;37.614;15.072;2023-08-06T13:16:34;26.44;57.08
73780;SHT30;62093;37.614;15.072;2023-08-06T13:19:00;26.42;57.11
73780;SHT30;62093;37.614;15.072;2023-08-06T13:21:34;26.44;57.06
73780;SHT30;62093;37.614;15.072;2023-08-06T13:24:01;26.45;57.04
73780;SHT30;62093;37.614;15.072;2023-08-06T13:26:31;26.44;57.00
73780;SHT30;62093;37.614;15.072;2023-08-06T13:28:58;26.44;57.00
73780;SHT30;62093;37.614;15.072;2023-08-06T13:31:25;26.45;56.99
73780;SHT30;62093;37.614;15.072;2023-08-06T13:33:51;26.47;56.95
73780;SHT30;62093;37.614;15.072;2023-08-06T13:36:17;26.47;56.95
73780;SHT30;62093;37.614;15.072;2023-08-06T13:38:43;26.48;56.98
73780;SHT30;62093;37.614;15.072;2023-08-06T13:41:09;26.47;56.93
73780;SHT30;62093;37.614;15.072;2023-08-06T13:43:35;26.48;56.91
73780;SHT30;62093;37.614;15.072;2023-08-06T13:46:01;26.49;56.90
73780;SHT30;62093;37.614;15.072;2023-08-06T13:48:26;26.49;56.92
73780;SHT30;62093;37.614;15.072;2023-08-06T13:50:52;26.48;56.89
73780;SHT30;62093;37.614;15.072;2023-08-06T13:53:18;26.47;56.86
73780;SHT30;62093;37.614;15.072;2023-08-06T13:55:44;26.48;56.87
73780;SHT30;62093;37.614;15.072;2023-08-06T13:58:10;26.51;56.81
73780;SHT30;62093;37.614;15.072;2023-08-06T14:00:36;26.53;56.80
73780;SHT30;62093;37.614;15.072;2023-08-06T14:03:02;26.51;56.81
73780;SHT30;62093;37.614;15.072;2023-08-06T14:05:28;26.52;56.76
73780;SHT30;62093;37.614;15.072;2023-08-06T14:07:54;26.52;56.77
73780;SHT30;62093;37.614;15.072;2023-08-06T14:10:19;26.52;56.76
73780;SHT30;62093;37.614;15.072;2023-08-06T14:12:45;26.53;56.75
73780;SHT30;62093;37.614;15.072;2023-08-06T14:15:11;26.53;56.70
73780;SHT30;62093;37.614;15.072;2023-08-06T14:17:37;26.56;56.71
73780;SHT30;62093;37.614;15.072;2023-08-06T14:20:03;26.56;56.73
73780;SHT30;62093;37.614;15.072;2023-08-06T14:22:32;26.55;56.71
73780;SHT30;62093;37.614;15.072;2023-08-06T14:24:58;26.56;56.67
73780;SHT30;62093;37.614;15.072;2023-08-06T14:27:24;26.56;56.67
73780;SHT30;62093;37.614;15.072;2023-08-06T14:29:50;26.59;56.68
73780;SHT30;62093;37.614;15.072;2023-08-06T14:32:16;26.58;56.63
73780;SHT30;62093;37.614;15.072;2023-08-06T14:34:44;26.60;56.63
73780;SHT30;62093;37.614;15.072;2023-08-06T14:37:10;26.58;56.61
73780;SHT30;62093;37.614;15.072;2023-08-06T14:39:36;26.59;56.61
73780;SHT30;62093;37.614;15.072;2023-08-06T14:42:03;26.58;56.63
73780;SHT30;62093;37.614;15.072;2023-08-06T14:44:29;26.59;56.64
73780;SHT30;62093;37.614;15.072;2023-08-06T14:46:55;26.60;56.56
73780;SHT30;62093;37.614;15.072;2023-08-06T14:49:20;26.60;56.54
73780;SHT30;62093;37.614;15.072;2023-08-06T14:51:46;26.60;56.57
73780;SHT30;62093;37.614;15.072;2023-08-06T14:54:12;26.59;56.52
73780;SHT30;62093;37.614;15.072;2023-08-06T14:56:38;26.62;56.57
73780;SHT30;62093;37.614;15.072;2023-08-06T14:59:04;26.62;56.57
73780;SHT30;62093;37.614;15.072;2023-08-06T15:01:30;26.63;56.58
73780;SHT30;62093;37.614;15.072;2023-08-06T15:03:55;26.60;56.56
73780;SHT30;62093;37.614;15.072;2023-08-06T15:06:21;26.59;56.56
73780;SHT30;62093;37.614;15.072;2023-08-06T15:08:47;26.63;56.49
73780;SHT30;62093;37.614;15.072;2023-08-06T15:11:13;26.63;56.54
73780;SHT30;62093;37.614;15.072;2023-08-06T15:13:40;26.63;56.54
73780;SHT30;62093;37.614;15.072;2023-08-06T15:16:06;26.65;56.50
73780;SHT30;62093;37.614;15.072;2023-08-06T15:18:32;26.65;56.49
73780;SHT30;62093;37.614;15.072;2023-08-06T15:20:58;26.63;56.51
73780;SHT30;62093;37.614;15.072;2023-08-06T15:23:24;26.63;56.46
73780;SHT30;62093;37.614;15.072;2023-08-06T15:25:50;26.63;56.48
73780;SHT30;62093;37.614;15.072;2023-08-06T15:28:16;26.69;56.44
73780;SHT30;62093;37.614;15.072;2023-08-06T15:30:49;26.72;56.34